Latest Weather Observations for Port Fairy

IDV60801

Issued at 9:35 pm EST Thursday 18 September 2014 (issued every 30 minutes, with the page automatically refreshed every 10 minutes)

About weather observations | Map of weather stations | Latest weather observations for VIC | Other Formats
Station Details ID: 090175 Name: PORT FAIRY AWS Lat: -38.39 Lon: 142.23 Height: 10.0 m
Data from the previous 72 hours. | See also: Recent months at Port Fairy
Date/Time
EST
Temp
°C
App
Temp
°C
Dew
Point
Rel
Hum
%
Delta-T
°C
Wind Press
QNH
hPa
Press
MSL
hPa
Rain
since 9 am
mm
Dir
 
Spd
km/h
Gust
km/h
Spd
kts
Gust
kts
18/09:30pm 11.1 7.9 5.2 67 2.7 S 11 17 6 9 1026.0 1026.0 0.0
18/09:00pm 11.1 8.0 5.4 68 2.6 SSW 11 19 6 10 1026.0 1026.0 0.0
18/08:30pm 11.1 8.4 5.6 69 2.5 SSW 9 15 5 8 1025.8 1025.8 0.0
18/08:00pm 11.3 8.3 5.8 69 2.5 SSW 11 15 6 8 1025.7 1025.7 0.0
18/07:30pm 11.1 8.4 5.4 68 2.6 SSW 9 15 5 8 1025.6 1025.6 0.0
18/07:00pm 11.2 7.7 5.3 67 2.7 S 13 19 7 10 1025.4 1025.4 0.0
18/06:30pm 11.4 7.8 5.1 65 2.9 SSW 13 20 7 11 1025.4 1025.4 0.0
18/06:00pm 11.6 8.0 5.0 64 3.0 SSW 13 20 7 11 1025.4 1025.4 0.0
18/05:30pm 12.0 8.3 4.7 61 3.3 SSW 13 20 7 11 1025.0 1025.0 0.0
18/05:00pm 12.3 8.7 4.8 60 3.4 S 13 17 7 9 1024.8 1024.8 0.0
18/04:30pm 12.9 8.6 5.3 60 3.5 SSW 17 24 9 13 1024.7 1024.7 0.0
18/04:00pm 13.1 8.7 4.5 56 3.9 S 17 24 9 13 1024.6 1024.6 0.0
18/03:30pm 12.5 7.5 4.5 58 3.6 S 20 28 11 15 1024.5 1024.5 0.0
18/03:00pm 13.3 9.1 5.9 61 3.5 S 17 24 9 13 1024.5 1024.5 0.0
18/02:30pm 13.4 9.0 4.8 56 4.0 SSW 17 24 9 13 1024.6 1024.6 0.0
18/02:00pm 13.8 9.6 5.7 58 3.8 S 17 24 9 13 1024.5 1024.5 0.0
18/01:30pm 13.1 8.4 6.0 62 3.4 SSW 20 32 11 17 1024.6 1024.6 0.0
18/01:00pm 12.6 8.3 5.3 61 3.4 SSW 17 24 9 13 1024.6 1024.6 0.0
18/12:30pm 13.4 9.6 7.4 67 2.9 SW 17 24 9 13 1024.8 1024.8 0.0
18/12:00pm 12.9 9.2 7.8 71 2.5 SW 17 22 9 12 1024.7 1024.7 0.0
18/11:30am 12.8 9.1 6.4 65 3.0 SSW 15 19 8 10 1024.6 1024.6 0.0
18/11:00am 12.6 8.0 6.6 67 2.8 S 20 32 11 17 1024.6 1024.6 0.0
18/10:30am 12.0 7.4 6.5 69 2.6 S 20 32 11 17 1024.7 1024.7 0.0
18/10:00am 12.4 7.8 6.5 67 2.8 SSW 20 30 11 16 1024.7 1024.7 0.0
18/09:30am 11.3 6.3 6.4 72 2.3 SW 22 30 12 16 1024.6 1024.6 0.0
18/09:00am 11.8 5.5 7.3 74 2.2 SW 30 39 16 21 1024.4 1024.4 1.6
18/08:30am 12.0 7.6 6.5 69 2.6 S 19 26 10 14 1023.9 1023.9 1.6
18/08:00am 11.4 6.7 6.1 70 2.5 SSW 20 32 11 17 1023.7 1023.7 1.6
18/07:30am 11.0 5.9 6.2 72 2.2 SSW 22 35 12 19 1023.4 1023.4 1.6
18/07:00am 10.7 5.4 6.6 76 1.9 SSW 24 35 13 19 1023.1 1023.1 1.6
18/06:30am 10.6 5.9 6.0 73 2.1 S 20 28 11 15 1022.6 1022.6 1.6
18/06:00am 10.7 4.9 6.3 74 2.0 S 26 35 14 19 1022.4 1022.4 1.6
18/05:30am 11.2 6.0 5.7 69 2.5 SSW 22 30 12 16 1022.0 1022.0 1.6
18/05:00am 10.9 5.6 5.2 68 2.6 SSW 22 30 12 16 1021.7 1021.7 1.6
18/04:30am 11.2 4.9 5.5 68 2.6 SW 28 35 15 19 1021.6 1021.6 1.6
18/04:00am 10.5 4.6 5.9 73 2.1 WSW 26 35 14 19 1021.4 1021.4 1.6
18/03:30am 11.2 4.5 5.5 68 2.6 SW 30 37 16 20 1021.2 1021.2 1.6
18/03:00am 11.4 5.1 5.7 68 2.6 SW 28 41 15 22 1021.1 1021.1 1.6
18/02:30am 11.1 4.4 5.6 69 2.5 SSW 30 41 16 22 1021.1 1021.1 1.6
18/02:00am 10.3 5.6 6.1 75 1.9 SW 20 30 11 16 1021.3 1021.3 1.6
18/01:45am 10.3 4.2 6.6 78 1.7 SW 28 48 15 26 1021.4 1021.4 1.6
18/01:30am 9.9 4.6 6.8 81 1.5 SSW 24 33 13 18 1021.3 1021.3 1.6
18/01:10am 10.8 4.3 6.7 76 1.9 SW 30 50 16 27 1021.4 1021.4 1.6
18/01:00am 10.6 3.7 6.6 76 1.9 WSW 32 44 17 24 1021.3 1021.3 1.6
18/12:30am 10.9 3.8 5.7 70 2.4 SW 32 41 17 22 1021.4 1021.4 1.6
18/12:00am 10.9 3.9 6.1 72 2.2 SW 32 39 17 21 1021.4 1021.4 1.6
 
Date/Time
EST
Temp
°C
App
Temp
°C
Dew
Point
Rel
Hum
%
Delta-T
°C
Wind Press
QNH
hPa
Press
MSL
hPa
Rain
since 9 am
mm
Dir
 
Spd
km/h
Gust
km/h
Spd
kts
Gust
kts
17/11:30pm 10.6 2.7 6.4 75 2.0 SSW 37 48 20 26 1021.5 1021.5 1.6
17/11:09pm 11.1 3.3 6.5 73 2.2 SW 37 56 20 30 1021.3 1021.3 1.6
17/11:00pm 10.8 3.7 6.6 75 2.0 SW 33 46 18 25 1021.2 1021.2 1.6
17/10:30pm 10.0 2.2 6.7 80 1.5 SSW 37 57 20 31 1021.2 1021.2 1.6
17/10:23pm 10.8 3.8 6.7 76 1.9 SW 33 57 18 31 1021.3 1021.3 1.6
17/10:00pm 10.2 2.5 6.9 80 1.5 SW 37 48 20 26 1021.3 1021.3 1.6
17/09:45pm 10.5 3.2 7.0 79 1.7 SW 35 61 19 33 1021.2 1021.2 1.6
17/09:30pm 9.4 1.9 6.3 81 1.4 WSW 35 52 19 28 1021.2 1021.2 1.6
17/09:21pm 10.0 2.9 6.3 78 1.7 WSW 33 52 18 28 1021.2 1021.2 1.4
17/09:00pm 9.7 1.8 6.4 80 1.5 SW 37 56 20 30 1021.0 1021.0 1.4
17/08:55pm 10.0 3.6 6.9 81 1.5 WSW 30 48 16 26 1020.9 1020.9 1.4
17/08:30pm 9.4 2.2 6.1 80 1.5 WSW 33 48 18 26 1020.7 1020.7 1.4
17/08:00pm 10.5 3.4 6.6 77 1.8 SW 33 44 18 24 1020.4 1020.4 1.2
17/07:30pm 9.4 1.8 5.9 79 1.6 WSW 35 46 19 25 1020.0 1020.0 1.2
17/07:05pm 10.5 3.5 6.1 74 2.0 WSW 32 54 17 29 1019.7 1019.7 1.0
17/07:00pm 10.4 4.2 6.2 75 1.9 WSW 28 39 15 21 1019.5 1019.5 1.0
17/06:30pm 9.6 3.2 5.2 74 2.0 WSW 28 44 15 24 1019.4 1019.4 1.0
17/06:15pm 10.4 2.8 5.8 73 2.1 SW 35 57 19 31 1019.6 1019.6 0.8
17/06:00pm 10.4 2.8 5.6 72 2.2 SW 35 44 19 24 1019.4 1019.4 0.8
17/05:30pm 10.5 1.7 5.7 72 2.2 SW 41 57 22 31 1019.0 1019.0 0.8
17/05:00pm 11.5 4.2 5.6 67 2.7 SW 33 50 18 27 1018.5 1018.5 0.8
17/04:49pm 11.8 3.7 5.4 65 3.0 SW 37 57 20 31 1018.4 1018.4 0.8
17/04:30pm 11.8 3.3 5.2 64 3.0 SW 39 52 21 28 1018.2 1018.2 0.8
17/04:14pm 11.4 4.2 6.1 70 2.5 WSW 33 52 18 28 1018.0 1018.0 0.8
17/04:00pm 11.2 4.4 7.1 76 2.0 WSW 32 39 17 21 1018.0 1018.0 0.8
17/03:32pm 10.6 4.7 7.3 80 1.6 WSW 28 46 15 25 1018.0 1018.0 0.8
17/03:30pm 10.6 4.3 7.3 80 1.6 WSW 30 46 16 25 1018.0 1018.0 0.8
17/03:06pm 10.6 1.8 5.6 71 2.3 WSW 41 59 22 32 1017.9 1017.9 0.4
17/03:00pm 11.7 3.6 5.1 64 3.0 SW 37 54 20 29 1017.7 1017.7 0.4
17/02:30pm 13.0 5.3 5.2 59 3.6 WSW 35 48 19 26 1017.3 1017.3 0.4
17/02:00pm 13.1 4.7 5.8 61 3.4 SW 39 52 21 28 1017.1 1017.1 0.4
17/01:54pm 13.0 4.8 6.4 64 3.1 SW 39 57 21 31 1017.0 1017.0 0.4
17/01:30pm 12.3 3.6 5.9 65 3.0 SW 41 54 22 29 1016.8 1016.8 0.4
17/01:00pm 11.7 2.5 6.2 69 2.6 SW 44 57 24 31 1016.7 1016.7 0.4
17/12:30pm 11.0 3.4 7.7 80 1.6 WSW 37 57 20 31 1016.7 1016.7 0.4
17/12:27pm 10.7 2.7 7.6 81 1.5 WSW 39 57 21 31 1016.7 1016.7 0.4
17/12:00pm 11.7 3.4 7.6 76 2.0 WSW 41 50 22 27 1016.8 1016.8 0.2
17/11:30am 11.7 1.8 6.6 71 2.4 WSW 48 61 26 33 1016.7 1016.7 0.2
17/11:01am 11.0 1.9 6.9 76 1.9 WSW 44 63 24 34 1016.6 1016.6 0.0
17/11:00am 11.1 2.0 7.0 76 1.9 WSW 44 63 24 34 1016.6 1016.6 0.0
17/10:48am 13.1 4.4 5.8 61 3.4 WSW 41 65 22 35 1016.3 1016.3 0.0
17/10:30am 13.0 4.6 5.4 60 3.5 WSW 39 52 21 28 1016.2 1016.2 0.0
17/10:00am 12.9 5.1 5.1 59 3.6 WSW 35 46 19 25 1016.1 1016.1 0.0
17/09:30am 12.1 3.9 5.0 62 3.3 WSW 37 48 20 26 1015.8 1015.8 0.0
17/09:00am 12.1 3.0 5.7 65 3.0 WSW 43 57 23 31 1015.4 1015.4 1.6
17/08:30am 11.6 2.9 6.1 69 2.6 WSW 41 56 22 30 1015.1 1015.1 1.6
17/08:00am 12.0 4.6 6.9 71 2.4 WSW 35 48 19 26 1014.8 1014.8 1.6
17/07:30am 11.2 2.2 6.5 73 2.2 WSW 43 57 23 31 1014.4 1014.4 1.6
17/07:00am 11.6 3.4 6.7 72 2.3 WSW 39 50 21 27 1013.8 1013.8 1.6
17/06:30am 11.5 3.4 7.0 74 2.1 WSW 39 50 21 27 1013.7 1013.7 1.6
17/06:00am 11.5 3.8 7.0 74 2.1 WSW 37 50 20 27 1013.7 1013.7 1.6
17/05:30am 11.4 4.3 8.1 80 1.6 WSW 35 50 19 27 1013.5 1013.5 1.6
17/05:00am 11.1 5.3 8.0 81 1.5 W 28 56 15 30 1013.4 1013.4 1.6
17/04:59am 11.2 5.4 8.1 81 1.5 W 28 56 15 30 1013.3 1013.3 1.6
17/04:58am 11.2 5.8 8.1 81 1.5 W 26 56 14 30 1013.3 1013.3 1.6
17/04:30am 10.5 4.4 6.8 78 1.7 W 28 37 15 20 1013.2 1013.2 1.6
17/04:00am 11.0 4.3 7.3 78 1.8 W 32 50 17 27 1013.0 1013.0 1.6
17/03:55am 11.2 4.5 7.5 78 1.8 W 32 50 17 27 1013.0 1013.0 1.6
17/03:30am 11.2 4.3 7.1 76 2.0 WSW 33 44 18 24 1012.9 1012.9 1.6
17/03:00am 11.3 4.4 7.4 77 1.9 WSW 33 46 18 25 1013.1 1013.1 1.6
17/02:30am 10.9 4.1 7.6 80 1.6 W 33 46 18 25 1013.0 1013.0 1.6
17/02:00am 10.9 4.2 8.1 83 1.4 W 33 46 18 25 1013.0 1013.0 1.6
17/01:30am 10.6 4.1 8.9 89 0.8 W 33 44 18 24 1013.1 1013.1 1.6
17/01:00am 10.9 3.4 9.5 91 0.7 WSW 39 46 21 25 1013.2 1013.2 0.6
17/12:36am 10.9 5.5 9.5 91 0.7 W 28 48 15 26 1013.1 1013.1 0.2
17/12:30am 10.1 7.3 8.5 90 0.8 NW 13 20 7 11 1013.0 1013.0 0.2
17/12:00am 9.4 6.8 7.7 89 0.8 NNW 11 17 6 9 1013.0 1013.0 0.0
 
Date/Time
EST
Temp
°C
App
Temp
°C
Dew
Point
Rel
Hum
%
Delta-T
°C
Wind Press
QNH
hPa
Press
MSL
hPa
Rain
since 9 am
mm
Dir
 
Spd
km/h
Gust
km/h
Spd
kts
Gust
kts
16/11:30pm 9.5 7.6 7.6 88 0.9 NNW 7 11 4 6 1013.2 1013.2 0.0
16/11:00pm 9.9 8.1 7.8 87 1.0 NW 7 13 4 7 1013.5 1013.5 0.0
16/10:30pm 10.3 8.1 7.9 85 1.2 NW 9 15 5 8 1013.7 1013.7 0.0
16/10:00pm 10.2 7.9 7.3 82 1.4 NW 9 15 5 8 1013.7 1013.7 0.0
16/09:30pm 10.1 8.1 7.0 81 1.5 NW 7 15 4 8 1013.8 1013.8 0.0
16/09:00pm 10.6 8.6 7.1 79 1.7 NNW 7 11 4 6 1013.8 1013.8 0.0
16/08:30pm 12.0 9.0 7.7 75 2.1 W 13 19 7 10 1013.7 1013.7 0.0
16/08:00pm 11.9 8.5 7.6 75 2.1 W 15 19 8 10 1013.8 1013.8 0.0
16/07:30pm 11.9 7.7 7.6 75 2.1 W 19 26 10 14 1013.7 1013.7 0.0
16/07:00pm 12.3 7.7 8.0 75 2.1 W 22 30 12 16 1013.4 1013.4 0.0
16/06:30pm 12.5 8.3 8.4 76 2.0 W 20 28 11 15 1013.3 1013.3 0.0
16/06:00pm 12.3 8.7 8.4 77 1.9 W 17 22 9 12 1013.3 1013.3 0.0
16/05:30pm 12.7 9.5 8.6 76 2.0 W 15 20 8 11 1013.1 1013.1 0.0
16/05:00pm 13.4 9.4 9.1 75 2.2 W 20 32 11 17 1013.0 1013.0 0.0
16/04:30pm 14.2 10.3 9.4 73 2.5 W 20 26 11 14 1012.9 1012.9 0.0
16/04:00pm 13.9 9.8 8.7 71 2.6 W 20 28 11 15 1012.9 1012.9 0.0
16/03:30pm 15.2 11.3 9.6 69 2.9 WSW 20 26 11 14 1012.9 1012.9 0.0
16/03:00pm 15.2 10.5 9.3 68 3.0 WSW 24 30 13 16 1012.9 1012.9 0.0
16/02:30pm 14.8 10.3 8.7 67 3.1 WSW 22 30 12 16 1013.0 1013.0 0.0
16/02:00pm 15.2 10.6 9.6 69 2.9 WSW 24 30 13 16 1012.9 1012.9 0.0
16/01:30pm 14.8 10.0 8.7 67 3.1 WSW 24 32 13 17 1013.0 1013.0 0.0
16/01:00pm 14.8 10.0 8.7 67 3.1 WSW 24 30 13 16 1013.2 1013.2 0.0
16/12:30pm 15.0 10.6 8.9 67 3.1 WSW 22 30 12 16 1013.2 1013.2 0.0
16/12:00pm 14.5 10.2 8.0 65 3.2 WSW 20 28 11 15 1013.4 1013.4 0.0
16/11:30am 14.7 10.2 8.4 66 3.2 SW 22 32 12 17 1013.6 1013.6 0.0
16/11:00am 13.4 8.3 7.6 68 2.8 SW 24 33 13 18 1013.7 1013.7 0.0
16/10:30am 14.1 9.3 8.9 71 2.6 WSW 24 32 13 17 1013.8 1013.8 0.0
16/10:00am 12.8 7.1 8.5 75 2.1 SW 28 33 15 18 1013.8 1013.8 0.0
16/09:30am 12.9 8.1 8.8 76 2.1 SW 24 32 13 17 1013.7 1013.7 0.0
16/09:00am 12.8 7.6 8.7 76 2.0 SW 26 32 14 17 1013.5 1013.5 0.4
16/08:30am 12.6 6.3 9.1 79 1.8 SW 32 39 17 21 1013.5 1013.5 0.4
16/08:00am 12.8 7.0 9.6 81 1.6 SSW 30 37 16 20 1013.3 1013.3 0.4
16/07:30am 12.3 6.1 9.5 83 1.4 SW 32 41 17 22 1013.0 1013.0 0.4
16/07:00am 12.3 6.2 9.9 85 1.2 SSW 32 43 17 23 1012.6 1012.6 0.4
16/06:30am 12.6 6.5 10.3 86 1.2 SSW 33 43 18 23 1012.2 1012.2 0.4
16/06:00am 12.4 6.8 10.3 87 1.1 SSW 30 39 16 21 1012.0 1012.0 0.4
16/05:30am 12.6 7.9 10.7 88 1.0 SSW 26 37 14 20 1011.6 1011.6 0.4
16/05:00am 12.5 7.8 10.7 89 0.9 SSW 26 37 14 20 1011.4 1011.4 0.4
16/04:30am 12.6 8.0 11.0 90 0.8 S 26 33 14 18 1011.2 1011.2 0.4
16/04:00am 12.4 8.1 10.8 90 0.8 SSW 24 33 13 18 1011.0 1011.0 0.4
16/03:30am 12.4 7.7 10.8 90 0.8 SSW 26 39 14 21 1011.0 1011.0 0.2
16/03:00am 12.6 7.9 10.8 89 0.9 S 26 35 14 19 1010.9 1010.9 0.0
16/02:30am 12.9 7.9 11.0 88 1.0 S 28 37 15 20 1011.0 1011.0 0.0
16/02:00am 13.0 8.0 10.9 87 1.1 S 28 37 15 20 1011.0 1011.0 0.0
16/01:30am 13.1 8.5 11.0 87 1.1 S 26 35 14 19 1011.2 1011.2 0.0
16/01:00am 13.3 9.5 11.0 86 1.2 S 22 32 12 17 1011.2 1011.2 0.0
16/12:30am 13.4 9.1 10.9 85 1.3 S 24 30 13 16 1011.3 1011.3 0.0
16/12:00am 13.4 9.1 10.9 85 1.3 SSE 24 32 13 17 1011.3 1011.3 0.0
 
Date/Time
EST
Temp
°C
App
Temp
°C
Dew
Point
Rel
Hum
%
Delta-T
°C
Wind Press
QNH
hPa
Press
MSL
hPa
Rain
since 9 am
mm
Dir
 
Spd
km/h
Gust
km/h
Spd
kts
Gust
kts
15/11:30pm 12.9 8.6 10.6 86 1.2 SSE 24 32 13 17 1011.4 1011.4 0.0
15/11:00pm 12.8 7.7 10.5 86 1.2 SSE 28 33 15 18 1011.1 1011.1 0.0
15/10:30pm 12.9 7.8 10.6 86 1.2 SSE 28 37 15 20 1011.4 1011.4 0.0
15/10:00pm 12.8 7.7 10.5 86 1.2 SE 28 37 15 20 1011.4 1011.4 0.0

Other Formats:

Comma delimited format used in spreadsheet applications
http://www.bom.gov.au/fwo/IDV60801/IDV60801.94830.axf

JavaScript Object Notation format (JSON) in row-major order
http://www.bom.gov.au/fwo/IDV60801/IDV60801.94830.json